sensor_id;sensor_type;location;lat;lon;timestamp;temperature;humidity
44166;DHT22;30476;53.468;9.826;2022-08-19T00:01:54;22.10;96.40
44166;DHT22;30476;53.468;9.826;2022-08-19T00:04:24;22.10;96.50
44166;DHT22;30476;53.468;9.826;2022-08-19T00:06:49;22.10;96.50
44166;DHT22;30476;53.468;9.826;2022-08-19T00:09:17;22.10;96.60
44166;DHT22;30476;53.468;9.826;2022-08-19T00:11:44;22.10;96.70
44166;DHT22;30476;53.468;9.826;2022-08-19T00:14:13;22.10;96.80
44166;DHT22;30476;53.468;9.826;2022-08-19T00:16:42;22.00;96.70
44166;DHT22;30476;53.468;9.826;2022-08-19T00:19:09;22.00;96.80
44166;DHT22;30476;53.468;9.826;2022-08-19T00:21:35;22.00;96.80
44166;DHT22;30476;53.468;9.826;2022-08-19T00:24:10;22.00;96.90
44166;DHT22;30476;53.468;9.826;2022-08-19T00:26:37;22.00;96.80
44166;DHT22;30476;53.468;9.826;2022-08-19T00:29:05;22.00;96.90
44166;DHT22;30476;53.468;9.826;2022-08-19T00:31:31;21.90;96.80
44166;DHT22;30476;53.468;9.826;2022-08-19T00:33:57;22.00;96.90
44166;DHT22;30476;53.468;9.826;2022-08-19T00:36:23;22.00;97.00
44166;DHT22;30476;53.468;9.826;2022-08-19T00:38:49;22.00;97.00
44166;DHT22;30476;53.468;9.826;2022-08-19T00:41:19;21.90;97.00
44166;DHT22;30476;53.468;9.826;2022-08-19T00:46:34;21.90;97.10
44166;DHT22;30476;53.468;9.826;2022-08-19T00:49:08;21.90;97.10
44166;DHT22;30476;53.468;9.826;2022-08-19T00:51:35;21.90;97.20
44166;DHT22;30476;53.468;9.826;2022-08-19T00:54:02;21.90;97.20
44166;DHT22;30476;53.468;9.826;2022-08-19T00:56:28;21.90;97.30
44166;DHT22;30476;53.468;9.826;2022-08-19T00:58:58;21.90;97.30
44166;DHT22;30476;53.468;9.826;2022-08-19T01:01:24;21.90;97.30
44166;DHT22;30476;53.468;9.826;2022-08-19T01:03:50;21.90;97.30
44166;DHT22;30476;53.468;9.826;2022-08-19T01:06:16;21.90;97.50
44166;DHT22;30476;53.468;9.826;2022-08-19T01:08:42;21.90;97.50
44166;DHT22;30476;53.468;9.826;2022-08-19T01:11:08;21.90;97.50
44166;DHT22;30476;53.468;9.826;2022-08-19T01:13:35;21.80;97.50
44166;DHT22;30476;53.468;9.826;2022-08-19T01:16:05;21.80;97.50
44166;DHT22;30476;53.468;9.826;2022-08-19T01:18:35;21.90;97.60
44166;DHT22;30476;53.468;9.826;2022-08-19T01:21:08;21.90;97.60
44166;DHT22;30476;53.468;9.826;2022-08-19T01:23:35;21.80;97.60
44166;DHT22;30476;53.468;9.826;2022-08-19T01:26:13;21.80;97.60
44166;DHT22;30476;53.468;9.826;2022-08-19T01:28:40;21.80;97.60
44166;DHT22;30476;53.468;9.826;2022-08-19T01:31:12;21.80;97.60
44166;DHT22;30476;53.468;9.826;2022-08-19T01:33:39;21.80;97.70
44166;DHT22;30476;53.468;9.826;2022-08-19T01:36:10;21.80;97.80
44166;DHT22;30476;53.468;9.826;2022-08-19T01:38:39;21.80;97.80
44166;DHT22;30476;53.468;9.826;2022-08-19T01:41:05;21.80;97.80
44166;DHT22;30476;53.468;9.826;2022-08-19T01:43:32;21.80;97.80
44166;DHT22;30476;53.468;9.826;2022-08-19T01:45:58;21.80;97.70
44166;DHT22;30476;53.468;9.826;2022-08-19T01:48:24;21.80;97.80
44166;DHT22;30476;53.468;9.826;2022-08-19T01:50:49;21.80;97.80
44166;DHT22;30476;53.468;9.826;2022-08-19T01:53:16;21.80;97.80
44166;DHT22;30476;53.468;9.826;2022-08-19T01:55:42;21.80;97.80
44166;DHT22;30476;53.468;9.826;2022-08-19T01:58:21;21.80;97.90
44166;DHT22;30476;53.468;9.826;2022-08-19T02:00:48;21.80;97.90
44166;DHT22;30476;53.468;9.826;2022-08-19T02:03:14;21.80;97.90
44166;DHT22;30476;53.468;9.826;2022-08-19T02:05:42;21.80;97.90
44166;DHT22;30476;53.468;9.826;2022-08-19T02:08:08;21.70;97.80
44166;DHT22;30476;53.468;9.826;2022-08-19T02:10:39;21.70;97.80
44166;DHT22;30476;53.468;9.826;2022-08-19T02:13:06;21.70;97.80
44166;DHT22;30476;53.468;9.826;2022-08-19T02:15:32;21.70;97.80
44166;DHT22;30476;53.468;9.826;2022-08-19T02:17:57;21.70;97.90
44166;DHT22;30476;53.468;9.826;2022-08-19T02:20:24;21.70;97.90
44166;DHT22;30476;53.468;9.826;2022-08-19T02:22:49;21.70;97.90
44166;DHT22;30476;53.468;9.826;2022-08-19T02:25:16;21.70;97.90
44166;DHT22;30476;53.468;9.826;2022-08-19T02:27:45;21.70;97.90
44166;DHT22;30476;53.468;9.826;2022-08-19T02:30:27;21.70;97.90
44166;DHT22;30476;53.468;9.826;2022-08-19T02:32:53;21.70;98.00
44166;DHT22;30476;53.468;9.826;2022-08-19T02:35:20;21.70;98.00
44166;DHT22;30476;53.468;9.826;2022-08-19T02:37:46;21.70;98.30
44166;DHT22;30476;53.468;9.826;2022-08-19T02:40:31;21.70;98.10
44166;DHT22;30476;53.468;9.826;2022-08-19T02:43:06;21.70;98.10
44166;DHT22;30476;53.468;9.826;2022-08-19T02:45:37;21.70;98.10
44166;DHT22;30476;53.468;9.826;2022-08-19T02:48:03;21.70;98.10
44166;DHT22;30476;53.468;9.826;2022-08-19T02:50:31;21.70;98.10
44166;DHT22;30476;53.468;9.826;2022-08-19T02:52:57;21.70;98.10
44166;DHT22;30476;53.468;9.826;2022-08-19T02:55:23;21.60;98.10
44166;DHT22;30476;53.468;9.826;2022-08-19T02:57:49;21.60;98.10
44166;DHT22;30476;53.468;9.826;2022-08-19T03:00:15;21.60;98.10
44166;DHT22;30476;53.468;9.826;2022-08-19T03:02:41;21.70;98.20
44166;DHT22;30476;53.468;9.826;2022-08-19T03:05:09;21.60;98.10
44166;DHT22;30476;53.468;9.826;2022-08-19T03:07:36;21.60;98.10
44166;DHT22;30476;53.468;9.826;2022-08-19T03:10:03;21.60;98.20
44166;DHT22;30476;53.468;9.826;2022-08-19T03:12:29;21.60;98.20
44166;DHT22;30476;53.468;9.826;2022-08-19T03:14:55;21.60;98.20
44166;DHT22;30476;53.468;9.826;2022-08-19T03:17:20;21.60;98.40
44166;DHT22;30476;53.468;9.826;2022-08-19T03:19:46;21.60;98.20
44166;DHT22;30476;53.468;9.826;2022-08-19T03:22:12;21.60;98.30
44166;DHT22;30476;53.468;9.826;2022-08-19T03:24:39;21.60;98.30
44166;DHT22;30476;53.468;9.826;2022-08-19T03:27:04;21.50;98.20
44166;DHT22;30476;53.468;9.826;2022-08-19T03:29:31;21.50;98.30
44166;DHT22;30476;53.468;9.826;2022-08-19T03:32:02;21.50;98.30
44166;DHT22;30476;53.468;9.826;2022-08-19T03:34:30;21.50;98.40
44166;DHT22;30476;53.468;9.826;2022-08-19T03:36:59;21.50;98.80
44166;DHT22;30476;53.468;9.826;2022-08-19T03:39:26;21.50;98.40
44166;DHT22;30476;53.468;9.826;2022-08-19T03:41:54;21.40;98.40
44166;DHT22;30476;53.468;9.826;2022-08-19T03:44:23;21.50;98.50
44166;DHT22;30476;53.468;9.826;2022-08-19T03:46:54;21.50;98.50
44166;DHT22;30476;53.468;9.826;2022-08-19T03:49:22;21.50;98.50
44166;DHT22;30476;53.468;9.826;2022-08-19T03:51:50;21.40;98.60
44166;DHT22;30476;53.468;9.826;2022-08-19T03:54:21;21.40;98.60
44166;DHT22;30476;53.468;9.826;2022-08-19T03:56:50;21.40;98.60
44166;DHT22;30476;53.468;9.826;2022-08-19T03:59:22;21.40;98.60
44166;DHT22;30476;53.468;9.826;2022-08-19T04:01:56;21.40;98.60
44166;DHT22;30476;53.468;9.826;2022-08-19T04:04:23;21.40;98.70
44166;DHT22;30476;53.468;9.826;2022-08-19T04:06:49;21.30;98.70
44166;DHT22;30476;53.468;9.826;2022-08-19T04:09:18;21.30;98.80
44166;DHT22;30476;53.468;9.826;2022-08-19T04:11:49;21.30;98.90
44166;DHT22;30476;53.468;9.826;2022-08-19T04:14:20;21.30;98.90
44166;DHT22;30476;53.468;9.826;2022-08-19T04:16:47;21.30;98.80
44166;DHT22;30476;53.468;9.826;2022-08-19T04:19:15;21.30;98.90
44166;DHT22;30476;53.468;9.826;2022-08-19T04:21:44;21.30;99.00
44166;DHT22;30476;53.468;9.826;2022-08-19T04:24:11;21.30;99.10
44166;DHT22;30476;53.468;9.826;2022-08-19T04:26:37;21.20;99.00
44166;DHT22;30476;53.468;9.826;2022-08-19T04:29:07;21.20;99.00
44166;DHT22;30476;53.468;9.826;2022-08-19T04:31:33;21.20;99.00
44166;DHT22;30476;53.468;9.826;2022-08-19T04:34:04;21.20;99.10
44166;DHT22;30476;53.468;9.826;2022-08-19T04:36:32;21.20;99.10
44166;DHT22;30476;53.468;9.826;2022-08-19T04:39:02;21.10;99.10
44166;DHT22;30476;53.468;9.826;2022-08-19T04:41:28;21.10;99.20
44166;DHT22;30476;53.468;9.826;2022-08-19T04:44:13;21.10;99.20
44166;DHT22;30476;53.468;9.826;2022-08-19T04:46:39;21.10;99.30
44166;DHT22;30476;53.468;9.826;2022-08-19T04:49:06;21.10;99.40
44166;DHT22;30476;53.468;9.826;2022-08-19T04:51:33;21.10;99.40
44166;DHT22;30476;53.468;9.826;2022-08-19T04:54:00;21.10;99.40
44166;DHT22;30476;53.468;9.826;2022-08-19T04:56:27;21.10;99.50
44166;DHT22;30476;53.468;9.826;2022-08-19T04:58:54;21.10;99.50
44166;DHT22;30476;53.468;9.826;2022-08-19T05:01:24;21.10;99.70
44166;DHT22;30476;53.468;9.826;2022-08-19T05:03:50;21.00;99.60
44166;DHT22;30476;53.468;9.826;2022-08-19T05:06:17;21.00;99.60
44166;DHT22;30476;53.468;9.826;2022-08-19T05:08:45;21.00;99.60
44166;DHT22;30476;53.468;9.826;2022-08-19T05:11:26;21.00;99.60
44166;DHT22;30476;53.468;9.826;2022-08-19T05:13:54;21.00;99.70
44166;DHT22;30476;53.468;9.826;2022-08-19T05:16:21;21.00;99.70
44166;DHT22;30476;53.468;9.826;2022-08-19T05:18:48;21.00;99.70
44166;DHT22;30476;53.468;9.826;2022-08-19T05:21:33;21.00;99.70
44166;DHT22;30476;53.468;9.826;2022-08-19T05:24:18;21.00;99.80
44166;DHT22;30476;53.468;9.826;2022-08-19T05:26:47;20.90;99.80
44166;DHT22;30476;53.468;9.826;2022-08-19T05:29:15;20.90;99.80
44166;DHT22;30476;53.468;9.826;2022-08-19T05:31:42;20.90;99.90
44166;DHT22;30476;53.468;9.826;2022-08-19T05:34:09;20.90;99.90
44166;DHT22;30476;53.468;9.826;2022-08-19T05:36:40;20.90;99.90
44166;DHT22;30476;53.468;9.826;2022-08-19T05:39:13;20.90;99.90
44166;DHT22;30476;53.468;9.826;2022-08-19T05:41:47;20.90;99.90
44166;DHT22;30476;53.468;9.826;2022-08-19T05:44:14;20.90;99.90
44166;DHT22;30476;53.468;9.826;2022-08-19T05:46:43;20.90;99.90
44166;DHT22;30476;53.468;9.826;2022-08-19T05:49:09;20.90;99.90
44166;DHT22;30476;53.468;9.826;2022-08-19T05:51:35;20.90;99.90
44166;DHT22;30476;53.468;9.826;2022-08-19T05:54:04;20.80;99.90
44166;DHT22;30476;53.468;9.826;2022-08-19T05:56:30;20.90;99.90
44166;DHT22;30476;53.468;9.826;2022-08-19T05:58:57;20.90;99.90
44166;DHT22;30476;53.468;9.826;2022-08-19T06:01:25;20.80;99.90
44166;DHT22;30476;53.468;9.826;2022-08-19T06:03:51;20.90;99.90
44166;DHT22;30476;53.468;9.826;2022-08-19T06:06:17;20.90;99.90
44166;DHT22;30476;53.468;9.826;2022-08-19T06:08:44;20.90;99.90
44166;DHT22;30476;53.468;9.826;2022-08-19T06:11:21;20.80;99.90
44166;DHT22;30476;53.468;9.826;2022-08-19T06:13:50;20.80;99.90
44166;DHT22;30476;53.468;9.826;2022-08-19T06:16:21;20.90;99.90
44166;DHT22;30476;53.468;9.826;2022-08-19T06:18:55;20.90;99.90
44166;DHT22;30476;53.468;9.826;2022-08-19T06:21:24;20.90;99.90
44166;DHT22;30476;53.468;9.826;2022-08-19T06:23:51;20.90;99.90
44166;DHT22;30476;53.468;9.826;2022-08-19T06:26:18;20.90;99.90
44166;DHT22;30476;53.468;9.826;2022-08-19T06:28:46;20.90;99.90
44166;DHT22;30476;53.468;9.826;2022-08-19T06:31:24;20.90;99.90
44166;DHT22;30476;53.468;9.826;2022-08-19T06:33:50;20.90;99.90
44166;DHT22;30476;53.468;9.826;2022-08-19T06:36:31;20.90;99.90
44166;DHT22;30476;53.468;9.826;2022-08-19T06:39:12;21.00;99.90
44166;DHT22;30476;53.468;9.826;2022-08-19T06:41:41;21.00;99.90
44166;DHT22;30476;53.468;9.826;2022-08-19T06:44:07;20.90;99.90
44166;DHT22;30476;53.468;9.826;2022-08-19T06:46:33;20.90;99.90
44166;DHT22;30476;53.468;9.826;2022-08-19T06:48:59;21.00;99.90
44166;DHT22;30476;53.468;9.826;2022-08-19T06:51:25;21.00;99.90
44166;DHT22;30476;53.468;9.826;2022-08-19T06:53:54;21.00;99.90
44166;DHT22;30476;53.468;9.826;2022-08-19T06:56:27;21.00;99.90
44166;DHT22;30476;53.468;9.826;2022-08-19T06:59:05;21.00;99.90
44166;DHT22;30476;53.468;9.826;2022-08-19T07:01:38;21.00;99.90
44166;DHT22;30476;53.468;9.826;2022-08-19T07:04:06;21.10;99.90
44166;DHT22;30476;53.468;9.826;2022-08-19T07:06:32;21.00;99.80
44166;DHT22;30476;53.468;9.826;2022-08-19T07:08:58;21.00;99.80
44166;DHT22;30476;53.468;9.826;2022-08-19T07:11:25;21.10;99.90
44166;DHT22;30476;53.468;9.826;2022-08-19T07:13:51;21.10;99.90
44166;DHT22;30476;53.468;9.826;2022-08-19T07:16:19;21.10;99.90
44166;DHT22;30476;53.468;9.826;2022-08-19T07:18:49;21.10;99.90
44166;DHT22;30476;53.468;9.826;2022-08-19T07:21:21;21.10;99.80
44166;DHT22;30476;53.468;9.826;2022-08-19T07:23:48;21.10;99.80
44166;DHT22;30476;53.468;9.826;2022-08-19T07:26:19;21.10;99.80
44166;DHT22;30476;53.468;9.826;2022-08-19T07:28:47;21.10;99.80
44166;DHT22;30476;53.468;9.826;2022-08-19T07:31:16;21.10;99.70
44166;DHT22;30476;53.468;9.826;2022-08-19T07:33:44;21.10;99.60
44166;DHT22;30476;53.468;9.826;2022-08-19T07:36:12;21.20;99.60
44166;DHT22;30476;53.468;9.826;2022-08-19T07:38:40;21.20;99.50
44166;DHT22;30476;53.468;9.826;2022-08-19T07:41:07;21.20;99.50
44166;DHT22;30476;53.468;9.826;2022-08-19T07:43:33;21.20;99.40
44166;DHT22;30476;53.468;9.826;2022-08-19T07:45:58;21.20;99.30
44166;DHT22;30476;53.468;9.826;2022-08-19T07:48:26;21.20;99.30
44166;DHT22;30476;53.468;9.826;2022-08-19T07:50:54;21.20;99.30
44166;DHT22;30476;53.468;9.826;2022-08-19T07:53:21;21.20;99.20
44166;DHT22;30476;53.468;9.826;2022-08-19T07:55:47;21.30;99.20
44166;DHT22;30476;53.468;9.826;2022-08-19T07:58:15;21.20;99.10
44166;DHT22;30476;53.468;9.826;2022-08-19T08:00:43;21.30;99.20
44166;DHT22;30476;53.468;9.826;2022-08-19T08:03:10;21.20;99.10
44166;DHT22;30476;53.468;9.826;2022-08-19T08:05:36;21.30;99.20
44166;DHT22;30476;53.468;9.826;2022-08-19T08:08:21;21.30;99.10
44166;DHT22;30476;53.468;9.826;2022-08-19T08:11:07;21.30;99.10
44166;DHT22;30476;53.468;9.826;2022-08-19T08:13:33;21.30;99.00
44166;DHT22;30476;53.468;9.826;2022-08-19T08:16:02;21.30;98.90
44166;DHT22;30476;53.468;9.826;2022-08-19T08:18:28;21.30;99.00
44166;DHT22;30476;53.468;9.826;2022-08-19T08:20:57;21.30;99.00
44166;DHT22;30476;53.468;9.826;2022-08-19T08:23:23;21.30;99.00
44166;DHT22;30476;53.468;9.826;2022-08-19T08:25:54;21.30;99.00
44166;DHT22;30476;53.468;9.826;2022-08-19T08:28:21;21.30;99.10
44166;DHT22;30476;53.468;9.826;2022-08-19T08:30:48;21.40;99.10
44166;DHT22;30476;53.468;9.826;2022-08-19T08:33:18;21.30;99.40
44166;DHT22;30476;53.468;9.826;2022-08-19T08:35:44;21.30;99.20
44166;DHT22;30476;53.468;9.826;2022-08-19T08:38:11;21.40;99.20
44166;DHT22;30476;53.468;9.826;2022-08-19T08:40:50;21.40;99.20
44166;DHT22;30476;53.468;9.826;2022-08-19T08:43:34;21.40;99.20
44166;DHT22;30476;53.468;9.826;2022-08-19T08:46:13;21.40;99.30
44166;DHT22;30476;53.468;9.826;2022-08-19T08:48:51;21.40;99.40
44166;DHT22;30476;53.468;9.826;2022-08-19T08:51:34;21.40;99.40
44166;DHT22;30476;53.468;9.826;2022-08-19T08:54:02;21.50;99.40
44166;DHT22;30476;53.468;9.826;2022-08-19T08:56:29;21.50;99.40
44166;DHT22;30476;53.468;9.826;2022-08-19T08:59:05;21.50;99.40
44166;DHT22;30476;53.468;9.826;2022-08-19T09:01:34;21.60;99.50
44166;DHT22;30476;53.468;9.826;2022-08-19T09:04:03;21.60;99.50
44166;DHT22;30476;53.468;9.826;2022-08-19T09:09:39;21.70;99.30
44166;DHT22;30476;53.468;9.826;2022-08-19T09:15:06;21.80;99.20
44166;DHT22;30476;53.468;9.826;2022-08-19T09:17:34;21.80;99.10
44166;DHT22;30476;53.468;9.826;2022-08-19T09:20:20;21.90;99.10
44166;DHT22;30476;53.468;9.826;2022-08-19T09:22:46;21.90;99.00
44166;DHT22;30476;53.468;9.826;2022-08-19T09:25:19;22.00;99.00
44166;DHT22;30476;53.468;9.826;2022-08-19T09:27:47;22.00;98.90
44166;DHT22;30476;53.468;9.826;2022-08-19T09:30:18;22.00;98.90
44166;DHT22;30476;53.468;9.826;2022-08-19T09:32:45;22.10;98.80
44166;DHT22;30476;53.468;9.826;2022-08-19T09:35:12;22.10;98.80
44166;DHT22;30476;53.468;9.826;2022-08-19T09:37:38;22.10;98.70
44166;DHT22;30476;53.468;9.826;2022-08-19T09:40:05;22.10;98.50
44166;DHT22;30476;53.468;9.826;2022-08-19T09:42:31;22.10;98.60
44166;DHT22;30476;53.468;9.826;2022-08-19T09:44:57;22.10;98.60
44166;DHT22;30476;53.468;9.826;2022-08-19T09:47:23;22.10;98.70
44166;DHT22;30476;53.468;9.826;2022-08-19T09:49:49;22.10;98.60
44166;DHT22;30476;53.468;9.826;2022-08-19T09:52:16;22.10;98.70
44166;DHT22;30476;53.468;9.826;2022-08-19T09:54:42;22.10;98.80
44166;DHT22;30476;53.468;9.826;2022-08-19T09:57:08;22.10;98.80
44166;DHT22;30476;53.468;9.826;2022-08-19T09:59:34;22.20;99.10
44166;DHT22;30476;53.468;9.826;2022-08-19T10:02:00;22.20;98.90
44166;DHT22;30476;53.468;9.826;2022-08-19T10:04:25;22.20;98.90
44166;DHT22;30476;53.468;9.826;2022-08-19T10:07:11;22.30;99.00
44166;DHT22;30476;53.468;9.826;2022-08-19T10:09:37;22.30;98.80
44166;DHT22;30476;53.468;9.826;2022-08-19T10:12:04;22.30;98.80
44166;DHT22;30476;53.468;9.826;2022-08-19T10:14:30;22.30;98.80
44166;DHT22;30476;53.468;9.826;2022-08-19T10:16:56;22.30;98.80
44166;DHT22;30476;53.468;9.826;2022-08-19T10:19:22;22.30;98.80
44166;DHT22;30476;53.468;9.826;2022-08-19T10:21:48;22.30;99.10
44166;DHT22;30476;53.468;9.826;2022-08-19T10:24:14;22.30;99.80
44166;DHT22;30476;53.468;9.826;2022-08-19T10:26:41;22.40;99.60
44166;DHT22;30476;53.468;9.826;2022-08-19T10:29:13;22.40;99.30
44166;DHT22;30476;53.468;9.826;2022-08-19T10:31:42;22.40;98.80
44166;DHT22;30476;53.468;9.826;2022-08-19T10:34:08;22.40;98.80
44166;DHT22;30476;53.468;9.826;2022-08-19T10:36:36;22.40;98.90
44166;DHT22;30476;53.468;9.826;2022-08-19T10:39:06;22.30;99.00
44166;DHT22;30476;53.468;9.826;2022-08-19T10:41:35;22.30;99.10
44166;DHT22;30476;53.468;9.826;2022-08-19T10:44:04;22.30;99.20
44166;DHT22;30476;53.468;9.826;2022-08-19T10:46:32;22.30;99.20
44166;DHT22;30476;53.468;9.826;2022-08-19T10:49:01;22.30;99.30
44166;DHT22;30476;53.468;9.826;2022-08-19T10:51:27;22.30;99.30
44166;DHT22;30476;53.468;9.826;2022-08-19T10:54:11;22.30;99.30
44166;DHT22;30476;53.468;9.826;2022-08-19T10:56:37;22.30;99.20
44166;DHT22;30476;53.468;9.826;2022-08-19T10:59:25;22.30;99.30
44166;DHT22;30476;53.468;9.826;2022-08-19T11:01:54;22.40;99.30
44166;DHT22;30476;53.468;9.826;2022-08-19T11:04:24;22.40;99.30
44166;DHT22;30476;53.468;9.826;2022-08-19T11:06:49;22.40;99.30
44166;DHT22;30476;53.468;9.826;2022-08-19T11:09:18;22.30;99.30
44166;DHT22;30476;53.468;9.826;2022-08-19T11:11:44;22.40;99.40
44166;DHT22;30476;53.468;9.826;2022-08-19T11:14:12;22.40;99.50
44166;DHT22;30476;53.468;9.826;2022-08-19T11:16:40;22.40;99.50
44166;DHT22;30476;53.468;9.826;2022-08-19T11:19:09;22.40;99.40
44166;DHT22;30476;53.468;9.826;2022-08-19T11:21:38;22.40;99.50
44166;DHT22;30476;53.468;9.826;2022-08-19T11:24:14;22.50;99.50
44166;DHT22;30476;53.468;9.826;2022-08-19T11:26:42;22.50;99.60
44166;DHT22;30476;53.468;9.826;2022-08-19T11:29:09;22.60;99.60
44166;DHT22;30476;53.468;9.826;2022-08-19T11:31:41;22.70;99.70
44166;DHT22;30476;53.468;9.826;2022-08-19T11:34:10;22.80;99.50
44166;DHT22;30476;53.468;9.826;2022-08-19T11:36:40;22.90;99.50
44166;DHT22;30476;53.468;9.826;2022-08-19T11:39:07;23.00;99.20
44166;DHT22;30476;53.468;9.826;2022-08-19T11:41:33;23.00;98.70
44166;DHT22;30476;53.468;9.826;2022-08-19T11:44:00;23.10;98.50
44166;DHT22;30476;53.468;9.826;2022-08-19T11:46:26;23.10;98.50
44166;DHT22;30476;53.468;9.826;2022-08-19T11:48:59;23.20;98.40
44166;DHT22;30476;53.468;9.826;2022-08-19T11:51:27;23.20;98.50
44166;DHT22;30476;53.468;9.826;2022-08-19T11:53:54;23.20;98.40
44166;DHT22;30476;53.468;9.826;2022-08-19T11:56:22;23.20;98.40
44166;DHT22;30476;53.468;9.826;2022-08-19T11:58:49;23.30;98.50
44166;DHT22;30476;53.468;9.826;2022-08-19T12:01:16;23.30;98.50
44166;DHT22;30476;53.468;9.826;2022-08-19T12:03:43;23.40;98.60
44166;DHT22;30476;53.468;9.826;2022-08-19T12:06:12;23.40;99.10
44166;DHT22;30476;53.468;9.826;2022-08-19T12:08:39;23.60;98.70
44166;DHT22;30476;53.468;9.826;2022-08-19T12:11:06;23.70;98.60
44166;DHT22;30476;53.468;9.826;2022-08-19T12:13:34;23.90;98.40
44166;DHT22;30476;53.468;9.826;2022-08-19T12:16:00;24.10;98.40
44166;DHT22;30476;53.468;9.826;2022-08-19T12:18:32;24.20;97.90
44166;DHT22;30476;53.468;9.826;2022-08-19T12:20:59;24.40;97.20
44166;DHT22;30476;53.468;9.826;2022-08-19T12:23:26;24.60;97.10
44166;DHT22;30476;53.468;9.826;2022-08-19T12:25:51;24.70;96.80
44166;DHT22;30476;53.468;9.826;2022-08-19T12:28:19;24.80;96.60
44166;DHT22;30476;53.468;9.826;2022-08-19T12:30:46;24.90;96.50
44166;DHT22;30476;53.468;9.826;2022-08-19T12:33:12;24.90;96.40
44166;DHT22;30476;53.468;9.826;2022-08-19T12:35:43;25.00;96.20
44166;DHT22;30476;53.468;9.826;2022-08-19T12:38:11;24.90;96.00
44166;DHT22;30476;53.468;9.826;2022-08-19T12:40:38;25.00;96.10
44166;DHT22;30476;53.468;9.826;2022-08-19T12:43:06;24.90;96.00
44166;DHT22;30476;53.468;9.826;2022-08-19T12:45:33;25.00;95.80
44166;DHT22;30476;53.468;9.826;2022-08-19T12:47:58;24.80;95.70
44166;DHT22;30476;53.468;9.826;2022-08-19T12:50:24;24.80;95.70
44166;DHT22;30476;53.468;9.826;2022-08-19T12:52:50;24.80;95.80
44166;DHT22;30476;53.468;9.826;2022-08-19T12:55:16;24.70;96.00
44166;DHT22;30476;53.468;9.826;2022-08-19T12:57:44;24.70;96.10
44166;DHT22;30476;53.468;9.826;2022-08-19T13:00:16;24.70;95.80
44166;DHT22;30476;53.468;9.826;2022-08-19T13:02:45;24.80;95.90
44166;DHT22;30476;53.468;9.826;2022-08-19T13:05:14;24.70;96.00
44166;DHT22;30476;53.468;9.826;2022-08-19T13:07:42;24.80;95.80
44166;DHT22;30476;53.468;9.826;2022-08-19T13:10:11;24.80;95.80
44166;DHT22;30476;53.468;9.826;2022-08-19T13:12:38;24.80;95.90
44166;DHT22;30476;53.468;9.826;2022-08-19T13:15:05;24.80;95.40
44166;DHT22;30476;53.468;9.826;2022-08-19T13:17:33;24.80;95.50
44166;DHT22;30476;53.468;9.826;2022-08-19T13:19:59;24.80;95.70
44166;DHT22;30476;53.468;9.826;2022-08-19T13:22:24;24.90;95.90
44166;DHT22;30476;53.468;9.826;2022-08-19T13:24:50;25.00;95.80
44166;DHT22;30476;53.468;9.826;2022-08-19T13:27:16;25.00;95.50
44166;DHT22;30476;53.468;9.826;2022-08-19T13:29:42;25.00;95.30
44166;DHT22;30476;53.468;9.826;2022-08-19T13:32:28;25.10;95.20
44166;DHT22;30476;53.468;9.826;2022-08-19T13:35:13;25.10;95.10
44166;DHT22;30476;53.468;9.826;2022-08-19T13:37:40;25.20;94.90
44166;DHT22;30476;53.468;9.826;2022-08-19T13:40:19;25.20;94.90
44166;DHT22;30476;53.468;9.826;2022-08-19T13:42:47;25.20;95.00
44166;DHT22;30476;53.468;9.826;2022-08-19T13:45:15;25.30;94.80
44166;DHT22;30476;53.468;9.826;2022-08-19T13:47:46;25.30;94.70
44166;DHT22;30476;53.468;9.826;2022-08-19T13:50:13;25.30;94.40
44166;DHT22;30476;53.468;9.826;2022-08-19T13:52:40;25.30;94.50
44166;DHT22;30476;53.468;9.826;2022-08-19T13:55:06;25.20;94.20
44166;DHT22;30476;53.468;9.826;2022-08-19T13:57:33;25.20;94.40
44166;DHT22;30476;53.468;9.826;2022-08-19T13:59:59;25.20;94.40
44166;DHT22;30476;53.468;9.826;2022-08-19T14:02:25;25.10;94.50
44166;DHT22;30476;53.468;9.826;2022-08-19T14:04:52;25.10;94.70
44166;DHT22;30476;53.468;9.826;2022-08-19T14:07:18;25.20;94.70
44166;DHT22;30476;53.468;9.826;2022-08-19T14:09:44;25.20;94.50
44166;DHT22;30476;53.468;9.826;2022-08-19T14:12:09;25.20;94.40
44166;DHT22;30476;53.468;9.826;2022-08-19T14:14:38;25.20;94.40
44166;DHT22;30476;53.468;9.826;2022-08-19T14:17:08;25.30;94.30
44166;DHT22;30476;53.468;9.826;2022-08-19T14:19:34;25.30;94.10
44166;DHT22;30476;53.468;9.826;2022-08-19T14:22:00;25.30;94.30
44166;DHT22;30476;53.468;9.826;2022-08-19T14:24:27;25.30;94.50
44166;DHT22;30476;53.468;9.826;2022-08-19T14:26:53;25.40;94.30
44166;DHT22;30476;53.468;9.826;2022-08-19T14:29:18;25.40;94.20
44166;DHT22;30476;53.468;9.826;2022-08-19T14:31:44;25.40;93.90
44166;DHT22;30476;53.468;9.826;2022-08-19T14:34:10;25.40;93.60
44166;DHT22;30476;53.468;9.826;2022-08-19T14:36:36;25.40;93.60
44166;DHT22;30476;53.468;9.826;2022-08-19T14:39:03;25.40;93.80
44166;DHT22;30476;53.468;9.826;2022-08-19T14:41:29;25.40;94.00
44166;DHT22;30476;53.468;9.826;2022-08-19T14:43:56;25.40;93.60
44166;DHT22;30476;53.468;9.826;2022-08-19T14:46:25;25.30;93.40
44166;DHT22;30476;53.468;9.826;2022-08-19T14:48:52;25.30;93.60
44166;DHT22;30476;53.468;9.826;2022-08-19T14:51:20;25.30;93.60
44166;DHT22;30476;53.468;9.826;2022-08-19T14:53:46;25.30;93.70
44166;DHT22;30476;53.468;9.826;2022-08-19T14:56:18;25.30;93.70
44166;DHT22;30476;53.468;9.826;2022-08-19T14:58:45;25.40;93.70
44166;DHT22;30476;53.468;9.826;2022-08-19T15:01:12;25.40;93.70
44166;DHT22;30476;53.468;9.826;2022-08-19T15:03:39;25.40;93.50
44166;DHT22;30476;53.468;9.826;2022-08-19T15:06:06;25.40;93.20
44166;DHT22;30476;53.468;9.826;2022-08-19T15:08:34;25.50;93.20
44166;DHT22;30476;53.468;9.826;2022-08-19T15:11:01;25.50;93.00
44166;DHT22;30476;53.468;9.826;2022-08-19T15:13:28;25.50;92.70
44166;DHT22;30476;53.468;9.826;2022-08-19T15:15:56;25.50;92.20
44166;DHT22;30476;53.468;9.826;2022-08-19T15:18:23;25.50;92.10
44166;DHT22;30476;53.468;9.826;2022-08-19T15:20:49;25.40;92.30
44166;DHT22;30476;53.468;9.826;2022-08-19T15:23:16;25.40;92.20
44166;DHT22;30476;53.468;9.826;2022-08-19T15:25:43;25.40;92.30
44166;DHT22;30476;53.468;9.826;2022-08-19T15:28:09;25.40;92.40
44166;DHT22;30476;53.468;9.826;2022-08-19T15:30:39;25.40;92.30
44166;DHT22;30476;53.468;9.826;2022-08-19T15:33:06;25.40;92.10
44166;DHT22;30476;53.468;9.826;2022-08-19T15:35:32;25.40;92.30
44166;DHT22;30476;53.468;9.826;2022-08-19T15:37:58;25.40;92.00
44166;DHT22;30476;53.468;9.826;2022-08-19T15:40:25;25.40;91.90
44166;DHT22;30476;53.468;9.826;2022-08-19T15:42:52;25.40;91.70
44166;DHT22;30476;53.468;9.826;2022-08-19T15:45:20;25.40;92.10
44166;DHT22;30476;53.468;9.826;2022-08-19T15:47:46;25.40;91.30